sensor_id;sensor_type;location;lat;lon;timestamp;pressure;altitude;pressure_sealevel;temperature;humidity
75045;BME280;63614;56.026;35.960;2023-02-04T00:01:21;98668.81;;;0.65;72.70
75045;BME280;63614;56.026;35.960;2023-02-04T00:03:47;98674.06;;;0.63;72.81
75045;BME280;63614;56.026;35.960;2023-02-04T00:06:13;98679.03;;;0.65;72.80
75045;BME280;63614;56.026;35.960;2023-02-04T00:08:39;98681.69;;;0.73;73.01
75045;BME280;63614;56.026;35.960;2023-02-04T00:11:04;98684.88;;;0.85;72.27
75045;BME280;63614;56.026;35.960;2023-02-04T00:13:30;98693.50;;;0.84;72.31
75045;BME280;63614;56.026;35.960;2023-02-04T00:15:56;98694.16;;;0.86;72.32
75045;BME280;63614;56.026;35.960;2023-02-04T00:18:21;98689.22;;;0.47;73.81
75045;BME280;63614;56.026;35.960;2023-02-04T00:20:47;98696.09;;;0.46;73.90
75045;BME280;63614;56.026;35.960;2023-02-04T00:23:13;98695.38;;;0.54;73.38
75045;BME280;63614;56.026;35.960;2023-02-04T00:26:04;98696.53;;;0.69;73.64
75045;BME280;63614;56.026;35.960;2023-02-04T00:28:29;98696.13;;;0.74;72.79
75045;BME280;63614;56.026;35.960;2023-02-04T00:30:55;98702.94;;;0.83;72.55
75045;BME280;63614;56.026;35.960;2023-02-04T00:33:21;98699.69;;;0.91;72.63
75045;BME280;63614;56.026;35.960;2023-02-04T00:35:47;98704.81;;;0.91;72.16
75045;BME280;63614;56.026;35.960;2023-02-04T00:38:12;98703.19;;;0.90;72.33
75045;BME280;63614;56.026;35.960;2023-02-04T00:40:39;98715.59;;;0.85;72.33
75045;BME280;63614;56.026;35.960;2023-02-04T00:43:05;98710.69;;;0.64;73.35
75045;BME280;63614;56.026;35.960;2023-02-04T00:45:30;98711.59;;;0.45;73.62
75045;BME280;63614;56.026;35.960;2023-02-04T00:47:56;98712.41;;;0.35;74.47
75045;BME280;63614;56.026;35.960;2023-02-04T00:50:22;98711.47;;;0.27;74.31
75045;BME280;63614;56.026;35.960;2023-02-04T00:52:48;98717.00;;;0.22;74.57
75045;BME280;63614;56.026;35.960;2023-02-04T00:55:14;98712.03;;;0.30;74.79
75045;BME280;63614;56.026;35.960;2023-02-04T00:57:43;98711.03;;;0.41;73.82
75045;BME280;63614;56.026;35.960;2023-02-04T01:00:12;98713.28;;;0.54;73.55
75045;BME280;63614;56.026;35.960;2023-02-04T01:02:38;98710.66;;;0.36;73.57
75045;BME280;63614;56.026;35.960;2023-02-04T01:05:06;98720.78;;;0.28;74.07
75045;BME280;63614;56.026;35.960;2023-02-04T01:07:32;98726.16;;;0.25;74.45
75045;BME280;63614;56.026;35.960;2023-02-04T01:09:58;98723.97;;;0.40;73.69
75045;BME280;63614;56.026;35.960;2023-02-04T01:12:24;98733.78;;;0.44;73.31
75045;BME280;63614;56.026;35.960;2023-02-04T01:14:52;98740.63;;;0.53;72.74
75045;BME280;63614;56.026;35.960;2023-02-04T01:17:18;98730.13;;;0.57;73.07
75045;BME280;63614;56.026;35.960;2023-02-04T01:19:46;98733.22;;;0.50;73.13
75045;BME280;63614;56.026;35.960;2023-02-04T01:22:12;98730.19;;;0.37;73.22
75045;BME280;63614;56.026;35.960;2023-02-04T01:24:38;98735.53;;;0.44;72.99
75045;BME280;63614;56.026;35.960;2023-02-04T01:27:21;98737.72;;;0.39;73.30
75045;BME280;63614;56.026;35.960;2023-02-04T01:29:47;98731.91;;;0.36;73.06
75045;BME280;63614;56.026;35.960;2023-02-04T01:32:13;98740.72;;;0.24;73.66
75045;BME280;63614;56.026;35.960;2023-02-04T01:34:39;98736.50;;;0.33;73.98
75045;BME280;63614;56.026;35.960;2023-02-04T01:37:04;98736.38;;;0.34;73.18
75045;BME280;63614;56.026;35.960;2023-02-04T01:39:31;98741.06;;;0.39;73.37
75045;BME280;63614;56.026;35.960;2023-02-04T01:41:58;98740.53;;;0.45;72.89
75045;BME280;63614;56.026;35.960;2023-02-04T01:44:26;98745.38;;;0.39;73.11
75045;BME280;63614;56.026;35.960;2023-02-04T01:46:53;98752.53;;;0.25;73.10
75045;BME280;63614;56.026;35.960;2023-02-04T01:49:19;98755.91;;;0.16;73.50
75045;BME280;63614;56.026;35.960;2023-02-04T01:51:45;98757.78;;;0.24;73.91
75045;BME280;63614;56.026;35.960;2023-02-04T01:54:11;98757.25;;;0.20;73.51
75045;BME280;63614;56.026;35.960;2023-02-04T01:56:40;98763.88;;;0.13;73.88
75045;BME280;63614;56.026;35.960;2023-02-04T01:59:12;98769.00;;;0.13;73.84
75045;BME280;63614;56.026;35.960;2023-02-04T02:01:46;98779.88;;;0.15;73.67
75045;BME280;63614;56.026;35.960;2023-02-04T02:04:15;98768.69;;;0.06;74.07
75045;BME280;63614;56.026;35.960;2023-02-04T02:06:44;98772.34;;;0.04;74.04
75045;BME280;63614;56.026;35.960;2023-02-04T02:09:12;98777.59;;;0.12;73.98
75045;BME280;63614;56.026;35.960;2023-02-04T02:11:37;98779.34;;;0.11;73.79
75045;BME280;63614;56.026;35.960;2023-02-04T02:14:04;98782.16;;;0.18;73.78
75045;BME280;63614;56.026;35.960;2023-02-04T02:16:49;98777.84;;;0.28;73.28
75045;BME280;63614;56.026;35.960;2023-02-04T02:19:21;98779.19;;;0.42;73.14
75045;BME280;63614;56.026;35.960;2023-02-04T02:22:12;98789.13;;;0.45;72.56
75045;BME280;63614;56.026;35.960;2023-02-04T02:24:41;98783.22;;;0.45;72.44
75045;BME280;63614;56.026;35.960;2023-02-04T02:27:09;98784.44;;;0.41;72.74
75045;BME280;63614;56.026;35.960;2023-02-04T02:29:38;98796.00;;;0.25;73.00
75045;BME280;63614;56.026;35.960;2023-02-04T02:32:06;98799.94;;;0.20;73.47
75045;BME280;63614;56.026;35.960;2023-02-04T02:34:33;98799.94;;;0.20;73.25
75045;BME280;63614;56.026;35.960;2023-02-04T02:37:02;98802.91;;;0.15;73.42
75045;BME280;63614;56.026;35.960;2023-02-04T02:39:28;98800.88;;;0.09;73.65
75045;BME280;63614;56.026;35.960;2023-02-04T02:41:55;98790.66;;;-0.01;74.31
75045;BME280;63614;56.026;35.960;2023-02-04T02:44:22;98788.09;;;-0.21;74.36
75045;BME280;63614;56.026;35.960;2023-02-04T02:46:49;98791.97;;;-0.36;75.12
75045;BME280;63614;56.026;35.960;2023-02-04T02:49:17;98788.63;;;-0.27;75.43
75045;BME280;63614;56.026;35.960;2023-02-04T02:51:43;98785.38;;;-0.29;75.29
75045;BME280;63614;56.026;35.960;2023-02-04T02:54:29;98791.41;;;-0.49;75.83
75045;BME280;63614;56.026;35.960;2023-02-04T02:56:58;98790.94;;;-0.64;76.24
75045;BME280;63614;56.026;35.960;2023-02-04T02:59:25;98802.19;;;-0.77;76.64
75045;BME280;63614;56.026;35.960;2023-02-04T03:01:55;98796.31;;;-0.67;76.19
75045;BME280;63614;56.026;35.960;2023-02-04T03:04:24;98805.47;;;-0.65;76.76
75045;BME280;63614;56.026;35.960;2023-02-04T03:06:51;98808.97;;;-0.56;76.02
75045;BME280;63614;56.026;35.960;2023-02-04T03:09:18;98802.66;;;-0.62;76.17
75045;BME280;63614;56.026;35.960;2023-02-04T03:11:46;98804.97;;;-0.59;76.11
75045;BME280;63614;56.026;35.960;2023-02-04T03:14:12;98807.63;;;-0.60;75.99
75045;BME280;63614;56.026;35.960;2023-02-04T03:16:38;98820.81;;;-0.55;75.65
75045;BME280;63614;56.026;35.960;2023-02-04T03:19:06;98820.97;;;-0.47;75.26
75045;BME280;63614;56.026;35.960;2023-02-04T03:21:33;98819.88;;;-0.64;76.33
75045;BME280;63614;56.026;35.960;2023-02-04T03:23:59;98829.91;;;-0.72;76.28
75045;BME280;63614;56.026;35.960;2023-02-04T03:26:25;98835.31;;;-0.65;75.62
75045;BME280;63614;56.026;35.960;2023-02-04T03:28:54;98831.94;;;-0.66;75.75
75045;BME280;63614;56.026;35.960;2023-02-04T03:31:20;98831.28;;;-0.68;76.29
75045;BME280;63614;56.026;35.960;2023-02-04T03:33:46;98829.53;;;-0.58;75.56
75045;BME280;63614;56.026;35.960;2023-02-04T03:36:12;98832.00;;;-0.46;75.08
75045;BME280;63614;56.026;35.960;2023-02-04T03:38:38;98837.78;;;-0.54;75.60
75045;BME280;63614;56.026;35.960;2023-02-04T03:41:04;98838.16;;;-0.59;75.55
75045;BME280;63614;56.026;35.960;2023-02-04T03:43:30;98839.00;;;-0.48;75.46
75045;BME280;63614;56.026;35.960;2023-02-04T03:45:55;98842.06;;;-0.55;75.12
75045;BME280;63614;56.026;35.960;2023-02-04T03:48:21;98847.75;;;-0.51;75.40
75045;BME280;63614;56.026;35.960;2023-02-04T03:50:47;98843.44;;;-0.50;74.72
75045;BME280;63614;56.026;35.960;2023-02-04T03:53:13;98841.75;;;-0.71;75.80
75045;BME280;63614;56.026;35.960;2023-02-04T03:55:38;98845.69;;;-0.57;74.99
75045;BME280;63614;56.026;35.960;2023-02-04T03:58:04;98849.16;;;-0.68;75.44
75045;BME280;63614;56.026;35.960;2023-02-04T04:00:31;98845.41;;;-0.64;75.19
75045;BME280;63614;56.026;35.960;2023-02-04T04:02:57;98852.38;;;-0.66;75.32
75045;BME280;63614;56.026;35.960;2023-02-04T04:05:23;98843.50;;;-0.71;75.21
75045;BME280;63614;56.026;35.960;2023-02-04T04:07:49;98847.47;;;-0.79;75.28
75045;BME280;63614;56.026;35.960;2023-02-04T04:10:15;98848.19;;;-0.98;75.85
75045;BME280;63614;56.026;35.960;2023-02-04T04:12:41;98846.28;;;-1.05;76.23
75045;BME280;63614;56.026;35.960;2023-02-04T04:15:07;98842.44;;;-1.21;76.51
75045;BME280;63614;56.026;35.960;2023-02-04T04:17:33;98857.06;;;-1.23;76.85
75045;BME280;63614;56.026;35.960;2023-02-04T04:19:59;98847.75;;;-1.34;77.49
75045;BME280;63614;56.026;35.960;2023-02-04T04:22:25;98856.50;;;-1.26;77.17
75045;BME280;63614;56.026;35.960;2023-02-04T04:24:51;98868.66;;;-1.19;77.21
75045;BME280;63614;56.026;35.960;2023-02-04T04:27:17;98869.06;;;-1.14;76.42
75045;BME280;63614;56.026;35.960;2023-02-04T04:29:42;98873.88;;;-1.41;76.99
75045;BME280;63614;56.026;35.960;2023-02-04T04:32:08;98877.88;;;-1.27;76.96
75045;BME280;63614;56.026;35.960;2023-02-04T04:34:34;98879.47;;;-1.26;76.76
75045;BME280;63614;56.026;35.960;2023-02-04T04:37:01;98871.44;;;-1.22;76.63
75045;BME280;63614;56.026;35.960;2023-02-04T04:39:27;98888.00;;;-1.16;76.62
75045;BME280;63614;56.026;35.960;2023-02-04T04:41:52;98884.56;;;-1.05;76.13
75045;BME280;63614;56.026;35.960;2023-02-04T04:44:18;98887.44;;;-0.99;76.01
75045;BME280;63614;56.026;35.960;2023-02-04T04:46:44;98894.97;;;-0.97;75.90
75045;BME280;63614;56.026;35.960;2023-02-04T04:49:10;98896.47;;;-1.16;76.18
75045;BME280;63614;56.026;35.960;2023-02-04T04:51:35;98886.50;;;-1.19;76.61
75045;BME280;63614;56.026;35.960;2023-02-04T04:54:01;98896.78;;;-1.30;76.96
75045;BME280;63614;56.026;35.960;2023-02-04T04:56:27;98904.44;;;-1.30;76.64
75045;BME280;63614;56.026;35.960;2023-02-04T04:58:52;98896.72;;;-1.40;77.08
75045;BME280;63614;56.026;35.960;2023-02-04T05:01:18;98904.66;;;-1.54;77.73
75045;BME280;63614;56.026;35.960;2023-02-04T05:03:45;98912.97;;;-1.52;77.53
75045;BME280;63614;56.026;35.960;2023-02-04T05:06:11;98919.63;;;-1.61;77.22
75045;BME280;63614;56.026;35.960;2023-02-04T05:08:37;98926.72;;;-1.76;77.59
75045;BME280;63614;56.026;35.960;2023-02-04T05:11:03;98934.69;;;-1.69;77.72
75045;BME280;63614;56.026;35.960;2023-02-04T05:13:29;98934.47;;;-1.66;77.70
75045;BME280;63614;56.026;35.960;2023-02-04T05:15:55;98947.56;;;-1.59;77.40
75045;BME280;63614;56.026;35.960;2023-02-04T05:18:21;98959.47;;;-1.49;77.14
75045;BME280;63614;56.026;35.960;2023-02-04T05:20:47;98955.97;;;-1.48;77.16
75045;BME280;63614;56.026;35.960;2023-02-04T05:23:12;98961.03;;;-1.36;76.96
75045;BME280;63614;56.026;35.960;2023-02-04T05:25:39;98960.00;;;-1.34;77.02
75045;BME280;63614;56.026;35.960;2023-02-04T05:28:05;98966.88;;;-1.46;77.31
75045;BME280;63614;56.026;35.960;2023-02-04T05:30:30;98963.72;;;-1.38;77.61
75045;BME280;63614;56.026;35.960;2023-02-04T05:32:56;98967.53;;;-1.32;77.21
75045;BME280;63614;56.026;35.960;2023-02-04T05:35:22;98975.63;;;-1.27;76.59
75045;BME280;63614;56.026;35.960;2023-02-04T05:37:47;98977.88;;;-1.13;76.66
75045;BME280;63614;56.026;35.960;2023-02-04T05:40:13;98975.69;;;-1.17;76.27
75045;BME280;63614;56.026;35.960;2023-02-04T05:42:39;98983.19;;;-1.04;76.10
75045;BME280;63614;56.026;35.960;2023-02-04T05:45:08;98982.75;;;-1.10;76.12
75045;BME280;63614;56.026;35.960;2023-02-04T05:47:34;98990.41;;;-1.10;76.41
75045;BME280;63614;56.026;35.960;2023-02-04T05:49:59;98996.22;;;-0.86;75.79
75045;BME280;63614;56.026;35.960;2023-02-04T05:52:25;98998.91;;;-0.67;75.29
75045;BME280;63614;56.026;35.960;2023-02-04T05:54:51;98997.72;;;-0.63;74.48
75045;BME280;63614;56.026;35.960;2023-02-04T05:57:17;99005.94;;;-0.80;74.33
75045;BME280;63614;56.026;35.960;2023-02-04T05:59:42;99002.44;;;-0.79;74.42
75045;BME280;63614;56.026;35.960;2023-02-04T06:02:08;99011.03;;;-0.80;73.77
75045;BME280;63614;56.026;35.960;2023-02-04T06:04:34;99010.25;;;-0.81;73.87
75045;BME280;63614;56.026;35.960;2023-02-04T06:06:59;99014.31;;;-0.89;73.69
75045;BME280;63614;56.026;35.960;2023-02-04T06:09:26;99028.41;;;-0.95;74.00
75045;BME280;63614;56.026;35.960;2023-02-04T06:11:51;99022.69;;;-0.87;73.84
75045;BME280;63614;56.026;35.960;2023-02-04T06:14:17;99024.06;;;-0.83;73.71
75045;BME280;63614;56.026;35.960;2023-02-04T06:16:43;99019.13;;;-0.96;73.85
75045;BME280;63614;56.026;35.960;2023-02-04T06:19:08;99036.13;;;-0.85;73.66
75045;BME280;63614;56.026;35.960;2023-02-04T06:21:34;99040.06;;;-0.81;73.59
75045;BME280;63614;56.026;35.960;2023-02-04T06:24:00;99042.50;;;-0.80;73.55
75045;BME280;63614;56.026;35.960;2023-02-04T06:26:26;99050.59;;;-0.75;73.67
75045;BME280;63614;56.026;35.960;2023-02-04T06:28:51;99053.72;;;-0.71;73.31
75045;BME280;63614;56.026;35.960;2023-02-04T06:31:17;99052.91;;;-0.71;73.67
75045;BME280;63614;56.026;35.960;2023-02-04T06:33:43;99056.81;;;-0.67;73.21
75045;BME280;63614;56.026;35.960;2023-02-04T06:36:08;99067.81;;;-0.88;73.73
75045;BME280;63614;56.026;35.960;2023-02-04T06:38:34;99062.22;;;-0.82;73.75
75045;BME280;63614;56.026;35.960;2023-02-04T06:41:00;99068.03;;;-0.80;73.21
75045;BME280;63614;56.026;35.960;2023-02-04T06:43:26;99067.09;;;-0.79;73.70
75045;BME280;63614;56.026;35.960;2023-02-04T06:45:52;99074.50;;;-0.76;73.50
75045;BME280;63614;56.026;35.960;2023-02-04T06:48:18;99071.16;;;-0.76;73.71
75045;BME280;63614;56.026;35.960;2023-02-04T06:50:44;99070.59;;;-0.80;73.15
75045;BME280;63614;56.026;35.960;2023-02-04T06:53:09;99079.19;;;-0.81;72.99
75045;BME280;63614;56.026;35.960;2023-02-04T06:55:35;99078.75;;;-0.86;73.60
75045;BME280;63614;56.026;35.960;2023-02-04T06:58:01;99080.16;;;-0.93;73.95
75045;BME280;63614;56.026;35.960;2023-02-04T07:00:27;99079.97;;;-0.80;73.53
75045;BME280;63614;56.026;35.960;2023-02-04T07:02:55;99079.13;;;-0.69;72.91
75045;BME280;63614;56.026;35.960;2023-02-04T07:05:22;99088.31;;;-0.67;72.85
75045;BME280;63614;56.026;35.960;2023-02-04T07:07:48;99086.53;;;-0.87;73.22
75045;BME280;63614;56.026;35.960;2023-02-04T07:10:15;99086.19;;;-0.94;73.29
75045;BME280;63614;56.026;35.960;2023-02-04T07:12:41;99087.84;;;-1.04;73.73
75045;BME280;63614;56.026;35.960;2023-02-04T07:15:07;99087.63;;;-1.13;73.66
75045;BME280;63614;56.026;35.960;2023-02-04T07:17:33;99091.69;;;-1.10;73.76
75045;BME280;63614;56.026;35.960;2023-02-04T07:19:59;99095.75;;;-1.07;73.80
75045;BME280;63614;56.026;35.960;2023-02-04T07:22:24;99100.13;;;-0.98;73.67
75045;BME280;63614;56.026;35.960;2023-02-04T07:24:50;99100.69;;;-0.95;73.22
75045;BME280;63614;56.026;35.960;2023-02-04T07:27:16;99095.22;;;-0.90;72.98
75045;BME280;63614;56.026;35.960;2023-02-04T07:29:42;99095.66;;;-0.85;72.75
75045;BME280;63614;56.026;35.960;2023-02-04T07:32:08;99097.50;;;-0.76;72.71
75045;BME280;63614;56.026;35.960;2023-02-04T07:34:33;99099.25;;;-0.76;72.56
75045;BME280;63614;56.026;35.960;2023-02-04T07:36:59;99100.66;;;-0.83;72.58
75045;BME280;63614;56.026;35.960;2023-02-04T07:39:25;99091.81;;;-0.79;72.66
75045;BME280;63614;56.026;35.960;2023-02-04T07:41:51;99103.56;;;-0.88;72.80
75045;BME280;63614;56.026;35.960;2023-02-04T07:44:21;99100.34;;;-0.90;73.19
75045;BME280;63614;56.026;35.960;2023-02-04T07:46:47;99107.50;;;-0.84;72.72
75045;BME280;63614;56.026;35.960;2023-02-04T07:49:13;99108.50;;;-0.64;72.36
75045;BME280;63614;56.026;35.960;2023-02-04T07:51:39;99113.75;;;-0.77;72.20
75045;BME280;63614;56.026;35.960;2023-02-04T07:54:04;99112.34;;;-0.69;72.58
75045;BME280;63614;56.026;35.960;2023-02-04T07:56:30;99112.97;;;-0.56;71.83
75045;BME280;63614;56.026;35.960;2023-02-04T07:58:56;99103.03;;;-0.38;71.10
75045;BME280;63614;56.026;35.960;2023-02-04T08:01:22;99115.16;;;-0.30;70.99
75045;BME280;63614;56.026;35.960;2023-02-04T08:03:47;99124.22;;;-0.05;69.98
75045;BME280;63614;56.026;35.960;2023-02-04T08:06:13;99120.66;;;0.07;69.89
75045;BME280;63614;56.026;35.960;2023-02-04T08:08:39;99124.13;;;0.27;69.28
75045;BME280;63614;56.026;35.960;2023-02-04T08:11:05;99123.66;;;0.43;68.29
75045;BME280;63614;56.026;35.960;2023-02-04T08:13:30;99123.41;;;0.25;68.92
75045;BME280;63614;56.026;35.960;2023-02-04T08:15:56;99119.16;;;0.35;68.91
75045;BME280;63614;56.026;35.960;2023-02-04T08:18:22;99130.03;;;0.28;69.17
75045;BME280;63614;56.026;35.960;2023-02-04T08:20:50;99128.94;;;0.51;68.45
75045;BME280;63614;56.026;35.960;2023-02-04T08:23:15;99137.13;;;0.45;68.33
75045;BME280;63614;56.026;35.960;2023-02-04T08:25:41;99139.97;;;0.52;68.15
75045;BME280;63614;56.026;35.960;2023-02-04T08:28:07;99142.78;;;0.49;68.54
75045;BME280;63614;56.026;35.960;2023-02-04T08:30:33;99131.44;;;0.42;68.71
75045;BME280;63614;56.026;35.960;2023-02-04T08:32:58;99147.22;;;0.47;68.53
75045;BME280;63614;56.026;35.960;2023-02-04T08:35:24;99150.59;;;0.47;68.58
75045;BME280;63614;56.026;35.960;2023-02-04T08:37:50;99154.16;;;0.35;68.78
75045;BME280;63614;56.026;35.960;2023-02-04T08:40:15;99160.47;;;0.31;67.71
75045;BME280;63614;56.026;35.960;2023-02-04T08:42:41;99166.59;;;0.49;67.76
75045;BME280;63614;56.026;35.960;2023-02-04T08:45:07;99167.78;;;0.35;67.92
75045;BME280;63614;56.026;35.960;2023-02-04T08:47:33;99177.56;;;0.51;67.51
75045;BME280;63614;56.026;35.960;2023-02-04T08:49:59;99183.19;;;0.45;67.95
75045;BME280;63614;56.026;35.960;2023-02-04T08:52:25;99176.09;;;0.28;68.03
75045;BME280;63614;56.026;35.960;2023-02-04T08:54:50;99182.25;;;0.46;66.96
75045;BME280;63614;56.026;35.960;2023-02-04T08:57:16;99177.56;;;0.51;67.43
75045;BME280;63614;56.026;35.960;2023-02-04T08:59:42;99173.09;;;0.23;68.27
75045;BME280;63614;56.026;35.960;2023-02-04T09:02:09;99181.28;;;0.47;67.52
75045;BME280;63614;56.026;35.960;2023-02-04T09:04:35;99175.88;;;0.41;67.83
75045;BME280;63614;56.026;35.960;2023-02-04T09:07:01;99180.81;;;0.32;67.60
75045;BME280;63614;56.026;35.960;2023-02-04T09:09:26;99181.16;;;0.49;67.76
75045;BME280;63614;56.026;35.960;2023-02-04T09:11:52;99181.69;;;0.74;66.25
75045;BME280;63614;56.026;35.960;2023-02-04T09:14:18;99182.16;;;0.98;65.46
75045;BME280;63614;56.026;35.960;2023-02-04T09:16:44;99189.44;;;0.93;65.58
75045;BME280;63614;56.026;35.960;2023-02-04T09:19:10;99201.09;;;1.17;65.39
75045;BME280;63614;56.026;35.960;2023-02-04T09:21:37;99197.03;;;1.24;64.90
75045;BME280;63614;56.026;35.960;2023-02-04T09:24:03;99204.19;;;1.30;64.53
75045;BME280;63614;56.026;35.960;2023-02-04T09:26:29;99197.81;;;1.05;65.02
75045;BME280;63614;56.026;35.960;2023-02-04T09:28:56;99204.19;;;1.20;64.00
75045;BME280;63614;56.026;35.960;2023-02-04T09:31:22;99205.97;;;1.39;63.57
75045;BME280;63614;56.026;35.960;2023-02-04T09:33:47;99201.41;;;1.62;62.97
75045;BME280;63614;56.026;35.960;2023-02-04T09:36:13;99207.06;;;1.56;63.36
75045;BME280;63614;56.026;35.960;2023-02-04T09:38:39;99196.78;;;1.56;63.20
75045;BME280;63614;56.026;35.960;2023-02-04T09:41:07;99207.34;;;1.63;62.87
75045;BME280;63614;56.026;35.960;2023-02-04T09:43:41;99203.41;;;1.30;63.57
75045;BME280;63614;56.026;35.960;2023-02-04T09:46:34;99202.88;;;1.36;64.01
75045;BME280;63614;56.026;35.960;2023-02-04T09:49:00;99207.41;;;1.22;64.75
75045;BME280;63614;56.026;35.960;2023-02-04T09:51:29;99211.34;;;1.26;64.23
75045;BME280;63614;56.026;35.960;2023-02-04T09:54:05;99210.38;;;1.27;64.35
75045;BME280;63614;56.026;35.960;2023-02-04T09:56:33;99212.88;;;0.98;64.35
75045;BME280;63614;56.026;35.960;2023-02-04T09:58:59;99213.72;;;1.08;65.03
75045;BME280;63614;56.026;35.960;2023-02-04T10:01:25;99217.66;;;1.13;65.31
75045;BME280;63614;56.026;35.960;2023-02-04T10:03:52;99221.19;;;1.21;64.51
75045;BME280;63614;56.026;35.960;2023-02-04T10:06:23;99222.25;;;1.19;64.61
75045;BME280;63614;56.026;35.960;2023-02-04T10:08:50;99222.69;;;1.34;64.83
75045;BME280;63614;56.026;35.960;2023-02-04T10:11:17;99218.03;;;1.08;64.98
75045;BME280;63614;56.026;35.960;2023-02-04T10:13:46;99221.13;;;1.02;65.35
75045;BME280;63614;56.026;35.960;2023-02-04T10:16:19;99226.47;;;0.89;65.68
75045;BME280;63614;56.026;35.960;2023-02-04T10:18:45;99234.03;;;1.00;65.73
75045;BME280;63614;56.026;35.960;2023-02-04T10:21:19;99236.19;;;0.95;65.56
75045;BME280;63614;56.026;35.960;2023-02-04T10:23:48;99241.16;;;0.87;65.69
75045;BME280;63614;56.026;35.960;2023-02-04T10:26:15;99243.88;;;0.95;65.90
75045;BME280;63614;56.026;35.960;2023-02-04T10:28:41;99246.47;;;1.05;65.19
75045;BME280;63614;56.026;35.960;2023-02-04T10:31:32;99255.03;;;1.25;64.92
75045;BME280;63614;56.026;35.960;2023-02-04T10:34:19;99255.44;;;1.30;64.40
75045;BME280;63614;56.026;35.960;2023-02-04T10:36:48;99261.88;;;1.15;65.57
75045;BME280;63614;56.026;35.960;2023-02-04T10:39:17;99261.16;;;1.03;65.83
75045;BME280;63614;56.026;35.960;2023-02-04T10:41:51;99268.25;;;1.30;64.91
75045;BME280;63614;56.026;35.960;2023-02-04T10:44:38;99270.53;;;1.23;64.30
75045;BME280;63614;56.026;35.960;2023-02-04T10:50:00;99277.22;;;1.55;63.51
75045;BME280;63614;56.026;35.960;2023-02-04T10:52:35;99270.06;;;1.59;63.45
75045;BME280;63614;56.026;35.960;2023-02-04T10:55:04;99274.28;;;1.60;62.66
75045;BME280;63614;56.026;35.960;2023-02-04T10:57:34;99271.59;;;1.71;63.01
75045;BME280;63614;56.026;35.960;2023-02-04T11:00:03;99268.28;;;1.50;63.58
75045;BME280;63614;56.026;35.960;2023-02-04T11:05:18;99279.31;;;1.31;63.56
75045;BME280;63614;56.026;35.960;2023-02-04T11:07:46;99266.00;;;1.56;62.87
75045;BME280;63614;56.026;35.960;2023-02-04T11:10:24;99269.00;;;1.61;63.33
75045;BME280;63614;56.026;35.960;2023-02-04T11:15:45;99279.16;;;1.83;62.75
75045;BME280;63614;56.026;35.960;2023-02-04T11:20:51;99278.56;;;1.59;62.53
75045;BME280;63614;56.026;35.960;2023-02-04T11:23:37;99280.31;;;1.49;62.87
75045;BME280;63614;56.026;35.960;2023-02-04T11:26:06;99292.06;;;1.52;63.12
75045;BME280;63614;56.026;35.960;2023-02-04T11:31:13;99294.69;;;1.31;64.80
75045;BME280;63614;56.026;35.960;2023-02-04T11:33:41;99298.44;;;1.17;64.91
75045;BME280;63614;56.026;35.960;2023-02-04T11:36:09;99305.41;;;1.15;65.62
75045;BME280;63614;56.026;35.960;2023-02-04T11:38:36;99299.06;;;1.09;66.03
75045;BME280;63614;56.026;35.960;2023-02-04T11:41:03;99300.22;;;0.95;66.01
75045;BME280;63614;56.026;35.960;2023-02-04T11:43:33;99306.25;;;0.94;66.74
75045;BME280;63614;56.026;35.960;2023-02-04T11:46:15;99306.72;;;0.78;67.20
75045;BME280;63614;56.026;35.960;2023-02-04T11:48:41;99310.34;;;0.97;66.83
75045;BME280;63614;56.026;35.960;2023-02-04T11:51:14;99309.94;;;1.01;66.54
75045;BME280;63614;56.026;35.960;2023-02-04T11:53:41;99309.41;;;0.98;66.73
75045;BME280;63614;56.026;35.960;2023-02-04T11:56:16;99308.16;;;0.92;67.15
75045;BME280;63614;56.026;35.960;2023-02-04T11:58:42;99315.66;;;0.84;67.16
75045;BME280;63614;56.026;35.960;2023-02-04T12:01:19;99317.75;;;1.00;66.35
75045;BME280;63614;56.026;35.960;2023-02-04T12:03:54;99325.03;;;0.95;66.69
75045;BME280;63614;56.026;35.960;2023-02-04T12:06:23;99319.16;;;1.04;66.11
75045;BME280;63614;56.026;35.960;2023-02-04T12:08:49;99326.25;;;1.00;66.52
75045;BME280;63614;56.026;35.960;2023-02-04T12:11:27;99331.53;;;1.08;66.49
75045;BME280;63614;56.026;35.960;2023-02-04T12:13:57;99327.38;;;1.07;65.67
75045;BME280;63614;56.026;35.960;2023-02-04T12:16:23;99328.78;;;1.21;65.91
75045;BME280;63614;56.026;35.960;2023-02-04T12:18:50;99323.72;;;1.10;66.49
75045;BME280;63614;56.026;35.960;2023-02-04T12:21:17;99332.66;;;1.16;65.71
75045;BME280;63614;56.026;35.960;2023-02-04T12:23:46;99341.72;;;1.20;65.25
75045;BME280;63614;56.026;35.960;2023-02-04T12:26:11;99339.53;;;1.15;65.12
75045;BME280;63614;56.026;35.960;2023-02-04T12:28:37;99348.31;;;1.22;65.14
75045;BME280;63614;56.026;35.960;2023-02-04T12:31:03;99349.16;;;1.02;65.72
75045;BME280;63614;56.026;35.960;2023-02-04T12:33:29;99346.09;;;1.08;65.68
75045;BME280;63614;56.026;35.960;2023-02-04T12:35:55;99339.09;;;1.10;65.18
75045;BME280;63614;56.026;35.960;2023-02-04T12:38:21;99354.22;;;1.13;64.49
75045;BME280;63614;56.026;35.960;2023-02-04T12:40:47;99352.66;;;1.22;64.14
75045;BME280;63614;56.026;35.960;2023-02-04T12:43:12;99351.97;;;1.20;64.85
75045;BME280;63614;56.026;35.960;2023-02-04T12:45:38;99365.84;;;1.17;64.71
75045;BME280;63614;56.026;35.960;2023-02-04T12:48:10;99365.41;;;1.12;64.43
75045;BME280;63614;56.026;35.960;2023-02-04T12:50:38;99364.63;;;0.90;65.23
75045;BME280;63614;56.026;35.960;2023-02-04T12:53:03;99361.75;;;0.84;64.83
75045;BME280;63614;56.026;35.960;2023-02-04T12:55:31;99365.00;;;0.86;65.91
75045;BME280;63614;56.026;35.960;2023-02-04T12:57:57;99374.84;;;0.90;65.31
75045;BME280;63614;56.026;35.960;2023-02-04T13:00:23;99364.13;;;0.76;66.46
75045;BME280;63614;56.026;35.960;2023-02-04T13:02:49;99374.63;;;0.72;66.65
75045;BME280;63614;56.026;35.960;2023-02-04T13:05:15;99374.00;;;0.59;66.93
75045;BME280;63614;56.026;35.960;2023-02-04T13:07:41;99373.28;;;0.57;66.95
75045;BME280;63614;56.026;35.960;2023-02-04T13:10:08;99381.41;;;0.62;67.08